Time;durP1;ratioP1;P1;durP2;ratioP2;P2;SDS_P1;SDS_P2;PMS_P1;PMS_P2;Temp;Humidity;BMP_temperature;BMP_pressure;BME280_temperature;BME280_humidity;BME280_pressure;Samples;Min_cycle;Max_cycle;Signal;HPM_P1;HPM_P2
2023/06/04 00:00:46;;;;;;;18.10;3.55;;;11.60;99.90;;;;;;5061752;28;20406;-76
2023/06/04 00:03:12;;;;;;;10.52;3.00;;;11.50;99.90;;;;;;5047594;28;20036;-76
2023/06/04 00:05:38;;;;;;;9.50;3.20;;;11.50;99.90;;;;;;5063396;28;20115;-76
2023/06/04 00:08:04;;;;;;;9.50;3.40;;;11.50;99.90;;;;;;5048316;28;20159;-76
2023/06/04 00:10:31;;;;;;;10.07;3.40;;;11.50;99.90;;;;;;5063568;28;20418;-76
2023/06/04 00:12:56;;;;;;;11.45;3.45;;;11.50;99.90;;;;;;5062676;28;20048;-76
2023/06/04 00:15:22;;;;;;;10.35;3.10;;;11.50;99.90;;;;;;5064221;28;20088;-76
2023/06/04 00:17:48;;;;;;;11.02;3.17;;;11.50;99.90;;;;;;5062432;28;20068;-76
2023/06/04 00:20:14;;;;;;;10.02;3.40;;;11.40;99.90;;;;;;5065180;28;20098;-76
2023/06/04 00:22:41;;;;;;;9.30;3.00;;;11.40;99.90;;;;;;5061645;28;20111;-76
2023/06/04 00:25:09;;;;;;;12.27;3.38;;;11.40;99.90;;;;;;5063939;28;20537;-76
2023/06/04 00:27:35;;;;;;;11.63;3.30;;;11.40;99.90;;;;;;5060499;28;20041;-76
2023/06/04 00:30:01;;;;;;;11.23;3.13;;;11.40;99.90;;;;;;5059831;28;20052;-76
2023/06/04 00:32:27;;;;;;;10.60;3.20;;;11.40;99.90;;;;;;5055012;28;20048;-77
2023/06/04 00:34:55;;;;;;;13.70;4.05;;;11.40;99.90;;;;;;5063986;28;20206;-76
2023/06/04 00:37:25;;;;;;;10.02;3.05;;;11.30;99.90;;;;;;5061996;28;20052;-76
2023/06/04 00:39:51;;;;;;;10.15;3.15;;;11.30;99.90;;;;;;5065024;28;20052;-76
2023/06/04 00:42:17;;;;;;;12.55;3.65;;;11.30;99.90;;;;;;5064690;28;20371;-76
2023/06/04 00:44:45;;;;;;;10.68;3.55;;;11.30;99.90;;;;;;5062523;28;20049;-76
2023/06/04 00:47:15;;;;;;;13.23;3.92;;;11.30;99.90;;;;;;5064238;28;20036;-76
2023/06/04 00:49:41;;;;;;;11.80;3.60;;;11.30;99.90;;;;;;5060236;28;20259;-76
2023/06/04 00:52:12;;;;;;;12.05;3.33;;;11.20;99.90;;;;;;5063699;28;20033;-76
2023/06/04 00:54:38;;;;;;;12.90;3.63;;;11.20;99.90;;;;;;5061607;28;20036;-76
2023/06/04 00:57:05;;;;;;;11.63;3.30;;;11.20;99.90;;;;;;5063855;28;20120;-76
2023/06/04 00:59:33;;;;;;;13.30;3.70;;;11.20;99.90;;;;;;5044149;28;20043;-76
2023/06/04 01:02:15;;;;;;;13.38;3.35;;;11.20;99.90;;;;;;5061278;28;20045;-76
2023/06/04 01:04:56;;;;;;;14.73;3.63;;;11.20;99.90;;;;;;5059864;28;20123;-77
2023/06/04 01:07:24;;;;;;;16.70;3.90;;;11.20;99.90;;;;;;5060776;28;20151;-76
2023/06/04 01:09:50;;;;;;;11.82;3.83;;;11.10;99.90;;;;;;5059589;28;20123;-76
2023/06/04 01:12:16;;;;;;;13.15;3.92;;;11.10;99.90;;;;;;5044108;28;20096;-76
2023/06/04 01:14:43;;;;;;;10.90;3.40;;;11.10;99.90;;;;;;5061817;28;20060;-76
2023/06/04 01:17:23;;;;;;;11.25;3.78;;;11.10;99.90;;;;;;5046206;28;20037;-76
2023/06/04 01:20:13;;;;;;;12.10;3.33;;;11.10;99.90;;;;;;5043283;28;20044;-76
2023/06/04 01:22:59;;;;;;;12.52;3.95;;;11.10;99.90;;;;;;5059385;28;20036;-76
2023/06/04 01:25:41;;;;;;;14.18;3.72;;;11.10;99.90;;;;;;5055902;28;20036;-76
2023/06/04 01:28:10;;;;;;;9.57;3.22;;;11.10;99.90;;;;;;5044451;28;20063;-76
2023/06/04 01:30:45;;;;;;;10.43;3.83;;;11.00;99.90;;;;;;5061501;28;20056;-76
2023/06/04 01:33:12;;;;;;;13.38;3.72;;;11.00;99.90;;;;;;5058796;28;20080;-76
2023/06/04 01:35:38;;;;;;;13.05;3.95;;;11.00;99.90;;;;;;5038381;28;20041;-76
2023/06/04 01:38:05;;;;;;;13.23;4.13;;;10.90;99.90;;;;;;5063478;28;20493;-76
2023/06/04 01:40:31;;;;;;;13.95;3.80;;;10.90;99.90;;;;;;5062138;28;20493;-76
2023/06/04 01:42:57;;;;;;;17.15;4.28;;;10.90;99.90;;;;;;5060417;28;20093;-76
2023/06/04 01:45:23;;;;;;;11.90;3.95;;;10.90;99.90;;;;;;5059599;28;20056;-76
2023/06/04 01:47:49;;;;;;;14.65;4.60;;;10.90;99.90;;;;;;5060597;28;20037;-76
2023/06/04 01:50:16;;;;;;;11.65;4.35;;;10.80;99.90;;;;;;5062067;28;20036;-76
2023/06/04 01:52:42;;;;;;;13.07;3.90;;;10.80;99.90;;;;;;5040358;28;20055;-76
2023/06/04 01:55:11;;;;;;;12.40;4.07;;;10.80;99.90;;;;;;5060107;28;20036;-76
2023/06/04 01:57:38;;;;;;;11.75;4.10;;;10.80;99.90;;;;;;5057691;28;20569;-76
2023/06/04 02:00:07;;;;;;;12.98;4.07;;;10.80;99.90;;;;;;5059688;28;20040;-76
2023/06/04 02:02:33;;;;;;;15.23;4.72;;;10.80;99.90;;;;;;5059538;28;20445;-76
2023/06/04 02:04:59;;;;;;;12.85;4.38;;;10.80;99.90;;;;;;5060469;28;20059;-76
2023/06/04 02:07:25;;;;;;;12.65;4.38;;;10.70;99.90;;;;;;5057700;28;20060;-76
2023/06/04 02:09:51;;;;;;;12.70;4.13;;;10.70;99.90;;;;;;5059516;28;20055;-76
2023/06/04 02:12:17;;;;;;;10.07;4.13;;;10.70;99.90;;;;;;5061647;28;20040;-76
2023/06/04 02:14:45;;;;;;;13.55;4.35;;;10.70;99.90;;;;;;5057923;28;20124;-76
2023/06/04 02:17:16;;;;;;;15.13;4.88;;;10.60;99.90;;;;;;5059875;28;20321;-76
2023/06/04 02:19:49;;;;;;;15.15;5.05;;;10.60;99.90;;;;;;5060217;28;20128;-76
2023/06/04 02:22:18;;;;;;;12.57;4.80;;;10.60;99.90;;;;;;5053999;28;20575;-76
2023/06/04 02:24:44;;;;;;;13.85;4.40;;;10.50;99.90;;;;;;5059106;28;20055;-76
2023/06/04 02:27:11;;;;;;;12.60;4.95;;;10.50;99.90;;;;;;5053138;28;20047;-76
2023/06/04 02:29:38;;;;;;;12.18;5.05;;;10.50;99.90;;;;;;5055910;28;20052;-76
2023/06/04 02:32:04;;;;;;;11.48;4.80;;;10.50;99.90;;;;;;5057511;28;20037;-76
2023/06/04 02:34:30;;;;;;;14.18;4.88;;;10.50;99.90;;;;;;5058035;28;20048;-76
2023/06/04 02:36:56;;;;;;;11.45;4.97;;;10.50;99.90;;;;;;5061053;28;20402;-76
2023/06/04 02:39:22;;;;;;;15.45;5.13;;;10.40;99.90;;;;;;5060273;28;20045;-76
2023/06/04 02:41:47;;;;;;;13.10;5.05;;;10.40;99.90;;;;;;5061824;28;20052;-76
2023/06/04 02:44:13;;;;;;;12.80;5.57;;;10.40;99.90;;;;;;5049510;28;20048;-76
2023/06/04 02:46:39;;;;;;;15.20;5.60;;;10.40;99.90;;;;;;5057263;28;20051;-76
2023/06/04 02:49:05;;;;;;;16.30;5.47;;;10.30;99.90;;;;;;5060980;28;20272;-76
2023/06/04 02:51:32;;;;;;;14.73;5.28;;;10.30;99.90;;;;;;5057626;28;20484;-76
2023/06/04 02:53:58;;;;;;;13.15;5.60;;;10.30;99.90;;;;;;5062218;28;20037;-76
2023/06/04 02:56:25;;;;;;;13.40;4.97;;;10.30;99.90;;;;;;5059939;28;20505;-76
2023/06/04 02:58:55;;;;;;;13.75;5.55;;;10.30;99.90;;;;;;5065948;28;20451;-76
2023/06/04 03:01:26;;;;;;;13.00;5.47;;;10.40;99.90;;;;;;5061043;28;20048;-76
2023/06/04 03:03:56;;;;;;;12.65;5.65;;;10.40;99.90;;;;;;5064110;28;20081;-77
2023/06/04 03:06:23;;;;;;;17.20;5.47;;;10.30;99.90;;;;;;5060880;28;20158;-77
2023/06/04 03:08:50;;;;;;;14.73;5.43;;;10.30;99.90;;;;;;5065542;28;20083;-76
2023/06/04 03:11:17;;;;;;;13.10;5.13;;;10.30;99.90;;;;;;5060050;28;20101;-76
2023/06/04 03:13:42;;;;;;;15.18;5.50;;;10.40;99.90;;;;;;5064990;28;20413;-76
2023/06/04 03:16:11;;;;;;;13.32;5.03;;;10.40;99.90;;;;;;5065832;28;20032;-76
2023/06/04 03:18:39;;;;;;;13.32;5.53;;;10.40;99.90;;;;;;5066273;28;20041;-76
2023/06/04 03:21:05;;;;;;;14.68;4.95;;;11.50;99.90;;;;;;5059565;28;20099;-76
2023/06/04 03:23:31;;;;;;;11.90;5.20;;;10.40;99.90;;;;;;5064745;28;20052;-76
2023/06/04 03:25:57;;;;;;;12.10;4.82;;;10.30;99.90;;;;;;5064257;28;20490;-76
2023/06/04 03:28:23;;;;;;;13.82;5.13;;;10.30;99.90;;;;;;5065058;28;20032;-76
2023/06/04 03:30:49;;;;;;;13.77;5.65;;;9.80;99.90;;;;;;5065357;28;20123;-76
2023/06/04 03:33:14;;;;;;;12.95;5.32;;;10.30;99.90;;;;;;5047362;28;20434;-76
2023/06/04 03:35:41;;;;;;;12.60;4.60;;;10.30;99.90;;;;;;5064180;28;20397;-76
2023/06/04 03:38:07;;;;;;;11.50;4.80;;;10.30;99.90;;;;;;5061203;28;20217;-76
2023/06/04 03:40:32;;;;;;;12.75;5.00;;;10.30;99.90;;;;;;5062173;28;20229;-76
2023/06/04 03:42:58;;;;;;;12.32;4.78;;;10.20;99.90;;;;;;5057742;28;20097;-76
2023/06/04 03:45:24;;;;;;;14.30;5.07;;;10.20;99.90;;;;;;5064815;28;20037;-76
2023/06/04 03:47:50;;;;;;;12.77;4.72;;;10.20;99.90;;;;;;5063356;28;20391;-76
2023/06/04 03:50:15;;;;;;;11.57;4.45;;;10.30;99.90;;;;;;5065457;28;20130;-76
2023/06/04 03:52:41;;;;;;;13.15;5.32;;;10.30;99.90;;;;;;5062611;28;20040;-76
2023/06/04 03:55:07;;;;;;;14.07;5.18;;;10.30;99.90;;;;;;5062354;28;20143;-76
2023/06/04 03:57:33;;;;;;;12.48;4.80;;;10.30;99.90;;;;;;5060384;28;20176;-76
2023/06/04 03:59:58;;;;;;;9.95;4.47;;;10.40;99.90;;;;;;5062177;28;20036;-76
2023/06/04 04:02:24;;;;;;;12.27;5.00;;;10.40;99.90;;;;;;5060937;28;20474;-76
2023/06/04 04:04:50;;;;;;;13.38;5.05;;;10.50;99.90;;;;;;5063383;28;20044;-76
2023/06/04 04:07:16;;;;;;;11.40;4.40;;;10.50;99.90;;;;;;5062670;28;20052;-76
2023/06/04 04:09:41;;;;;;;12.68;5.07;;;10.60;99.90;;;;;;5062390;28;20044;-76
2023/06/04 04:12:07;;;;;;;13.25;4.97;;;10.60;99.90;;;;;;5043188;28;20036;-76
2023/06/04 04:14:33;;;;;;;13.80;4.95;;;10.70;99.90;;;;;;5062139;28;20037;-76
2023/06/04 04:16:59;;;;;;;11.75;4.60;;;10.80;99.90;;;;;;5066237;28;20093;-76
2023/06/04 04:19:25;;;;;;;11.95;4.70;;;10.80;99.90;;;;;;5063523;28;20505;-76
2023/06/04 04:21:51;;;;;;;12.85;4.68;;;10.90;99.90;;;;;;5063070;28;20040;-76
2023/06/04 04:24:23;;;;;;;13.43;4.88;;;10.90;99.90;;;;;;5060166;28;20043;-76
2023/06/04 04:26:52;;;;;;;12.45;4.82;;;11.00;99.90;;;;;;5063742;28;20037;-76
2023/06/04 04:29:22;;;;;;;12.35;4.32;;;11.10;99.90;;;;;;5063720;28;20279;-77
2023/06/04 04:31:49;;;;;;;11.52;4.80;;;11.10;99.90;;;;;;5061707;28;20051;-77
2023/06/04 04:34:15;;;;;;;10.88;4.82;;;11.20;99.90;;;;;;5040122;28;20586;-76
2023/06/04 04:36:40;;;;;;;12.77;4.60;;;11.20;99.90;;;;;;5061522;28;20119;-76
2023/06/04 04:39:06;;;;;;;11.70;4.93;;;11.30;99.90;;;;;;5061593;28;20032;-76
2023/06/04 04:41:32;;;;;;;11.05;5.05;;;11.40;99.90;;;;;;5039999;28;20205;-76
2023/06/04 04:44:05;;;;;;;13.20;5.50;;;11.40;99.90;;;;;;5057683;28;21293;-76
2023/06/04 04:46:31;;;;;;;11.55;4.97;;;11.50;99.90;;;;;;5058110;28;20654;-77
2023/06/04 04:48:57;;;;;;;11.05;4.82;;;11.60;99.90;;;;;;5059100;28;20460;-76
2023/06/04 04:51:22;;;;;;;13.43;6.18;;;11.70;99.90;;;;;;5063859;28;20052;-76
2023/06/04 04:53:48;;;;;;;12.25;5.43;;;11.70;99.90;;;;;;5062098;28;20449;-77
2023/06/04 04:56:14;;;;;;;11.48;5.72;;;11.80;99.90;;;;;;5052885;28;20098;-76
2023/06/04 04:58:40;;;;;;;13.20;5.53;;;11.90;99.90;;;;;;5062130;28;20133;-76
2023/06/04 05:01:06;;;;;;;15.05;6.10;;;12.00;99.90;;;;;;5059981;28;20045;-76
2023/06/04 05:03:31;;;;;;;13.80;5.68;;;12.00;99.90;;;;;;5061820;28;20041;-76
2023/06/04 05:05:57;;;;;;;13.82;6.28;;;12.10;99.90;;;;;;5059373;28;20120;-76
2023/06/04 05:08:23;;;;;;;13.38;5.35;;;12.10;99.90;;;;;;5059308;28;20044;-76
2023/06/04 05:10:50;;;;;;;17.75;5.90;;;12.10;99.90;;;;;;5044368;28;20175;-76
2023/06/04 05:13:17;;;;;;;13.85;5.35;;;12.20;99.90;;;;;;5063296;28;20040;-76
2023/06/04 05:15:43;;;;;;;15.02;5.53;;;12.30;99.90;;;;;;5036405;28;20114;-76
2023/06/04 05:18:09;;;;;;;11.98;5.20;;;12.30;99.90;;;;;;5057922;28;20078;-76
2023/06/04 05:20:37;;;;;;;12.65;5.03;;;12.40;99.90;;;;;;5062303;28;20071;-76
2023/06/04 05:23:04;;;;;;;11.30;5.28;;;12.50;99.90;;;;;;5037655;28;20071;-76
2023/06/04 05:25:30;;;;;;;12.93;5.05;;;12.60;99.90;;;;;;5046813;28;20036;-76
2023/06/04 05:27:58;;;;;;;17.23;5.10;;;12.70;99.90;;;;;;5044546;28;20383;-76
2023/06/04 05:30:24;;;;;;;16.52;5.82;;;12.70;99.90;;;;;;5040392;28;20428;-77
2023/06/04 05:32:50;;;;;;;14.10;5.60;;;12.80;99.90;;;;;;5039124;28;20053;-77
2023/06/04 05:35:16;;;;;;;15.35;5.13;;;12.90;99.90;;;;;;5054732;28;20049;-76
2023/06/04 05:37:45;;;;;;;16.77;5.50;;;13.00;99.90;;;;;;5056373;28;20075;-76
2023/06/04 05:40:12;;;;;;;13.57;4.93;;;13.00;99.90;;;;;;5061502;28;20505;-76
2023/06/04 05:42:38;;;;;;;13.73;5.03;;;13.10;99.90;;;;;;5058401;28;20116;-76
2023/06/04 05:45:05;;;;;;;12.70;5.13;;;13.10;99.90;;;;;;5050131;28;20102;-76
2023/06/04 05:47:31;;;;;;;12.25;4.50;;;13.30;99.90;;;;;;5056490;28;20126;-76
2023/06/04 05:49:57;;;;;;;15.52;4.97;;;13.40;99.90;;;;;;5061123;28;20486;-76
2023/06/04 05:52:23;;;;;;;16.42;5.40;;;13.40;99.90;;;;;;5065035;28;20068;-76
2023/06/04 05:54:49;;;;;;;12.05;4.88;;;13.50;99.90;;;;;;5068348;28;20052;-76
2023/06/04 05:57:15;;;;;;;14.10;4.32;;;13.60;99.90;;;;;;5068938;28;20040;-76
2023/06/04 05:59:40;;;;;;;14.50;5.00;;;13.70;99.90;;;;;;5067289;28;20562;-76
2023/06/04 06:02:07;;;;;;;14.85;4.93;;;13.70;99.90;;;;;;5023245;28;20037;-75
2023/06/04 06:04:33;;;;;;;12.75;4.25;;;13.80;99.90;;;;;;5063532;28;20094;-75
2023/06/04 06:06:58;;;;;;;11.70;3.85;;;13.90;99.90;;;;;;5068602;28;20037;-76
2023/06/04 06:09:24;;;;;;;9.88;3.25;;;14.00;99.90;;;;;;5057136;28;20525;-75
2023/06/04 06:11:50;;;;;;;11.23;3.20;;;14.10;99.90;;;;;;5068262;28;20051;-75
2023/06/04 06:14:15;;;;;;;10.85;3.13;;;14.20;99.90;;;;;;5036223;28;20509;-75
2023/06/04 06:16:41;;;;;;;10.23;2.90;;;14.20;99.90;;;;;;5069740;28;20052;-75
2023/06/04 06:19:07;;;;;;;13.55;3.03;;;14.30;99.90;;;;;;5069578;28;20506;-76
2023/06/04 06:21:33;;;;;;;12.88;3.40;;;14.40;99.90;;;;;;5056310;28;20047;-77
2023/06/04 06:23:58;;;;;;;14.57;3.28;;;14.40;99.90;;;;;;5058514;28;20504;-76
2023/06/04 06:26:25;;;;;;;11.77;2.85;;;14.50;99.90;;;;;;5066357;28;20041;-75
2023/06/04 06:28:50;;;;;;;11.00;2.70;;;14.50;99.90;;;;;;5065412;28;20044;-76
2023/06/04 06:31:16;;;;;;;12.13;2.85;;;14.60;99.90;;;;;;5072273;28;20043;-76
2023/06/04 06:33:42;;;;;;;9.95;2.80;;;14.70;99.90;;;;;;5067931;28;20510;-75
2023/06/04 06:36:12;;;;;;;11.38;3.08;;;14.70;99.90;;;;;;5064303;28;20041;-75
2023/06/04 06:38:37;;;;;;;9.70;2.80;;;14.80;99.90;;;;;;5062379;28;20447;-75
2023/06/04 06:41:03;;;;;;;10.65;2.42;;;14.90;99.90;;;;;;5063525;28;20053;-75
2023/06/04 06:43:29;;;;;;;12.25;2.78;;;15.00;99.90;;;;;;5052769;28;20040;-75
2023/06/04 06:45:55;;;;;;;11.88;2.20;;;15.10;99.90;;;;;;5064014;28;20049;-76
2023/06/04 06:48:21;;;;;;;9.27;2.53;;;15.10;99.90;;;;;;5059558;28;20048;-76
2023/06/04 06:50:46;;;;;;;10.88;2.75;;;15.20;99.90;;;;;;5065996;28;20041;-76
2023/06/04 06:53:12;;;;;;;9.60;2.97;;;15.20;99.90;;;;;;5057451;28;20119;-74
2023/06/04 06:55:38;;;;;;;8.38;2.65;;;15.20;99.90;;;;;;5064640;28;20486;-76
2023/06/04 06:58:03;;;;;;;9.82;2.60;;;15.30;99.90;;;;;;5066798;28;20132;-76
2023/06/04 07:00:29;;;;;;;9.23;2.60;;;15.20;99.90;;;;;;5043135;28;20482;-76
2023/06/04 07:02:56;;;;;;;11.07;2.55;;;15.30;99.90;;;;;;5049584;28;20044;-75
2023/06/04 07:05:22;;;;;;;6.18;2.10;;;15.40;99.90;;;;;;5068358;28;20098;-75
2023/06/04 07:07:47;;;;;;;8.55;2.13;;;15.50;99.90;;;;;;5054517;28;21409;-75
2023/06/04 07:10:13;;;;;;;8.85;2.20;;;15.60;99.90;;;;;;5066751;28;20105;-76
2023/06/04 07:12:39;;;;;;;9.20;2.58;;;15.60;99.90;;;;;;5057461;28;20403;-75
2023/06/04 07:15:06;;;;;;;9.88;2.30;;;15.70;99.90;;;;;;5066686;28;20102;-75
2023/06/04 07:17:32;;;;;;;7.72;2.38;;;15.80;99.90;;;;;;5066808;28;20045;-76
2023/06/04 07:19:58;;;;;;;10.57;2.67;;;15.90;99.90;;;;;;5058702;28;20482;-75
2023/06/04 07:22:23;;;;;;;9.55;2.40;;;15.90;99.90;;;;;;5061627;28;20036;-75
2023/06/04 07:24:50;;;;;;;9.43;2.42;;;16.00;99.90;;;;;;5063937;28;20131;-75
2023/06/04 07:27:16;;;;;;;7.57;2.10;;;16.00;99.90;;;;;;5060334;28;20502;-75
2023/06/04 07:29:44;;;;;;;7.82;2.30;;;16.00;99.90;;;;;;5058000;28;20049;-75
2023/06/04 07:32:10;;;;;;;7.47;2.10;;;16.00;99.90;;;;;;5043543;28;20502;-75
2023/06/04 07:34:38;;;;;;;9.63;2.40;;;16.00;99.90;;;;;;5046608;28;20051;-75
2023/06/04 07:37:04;;;;;;;9.05;2.55;;;16.10;99.90;;;;;;5036479;28;20037;-75
2023/06/04 07:39:30;;;;;;;7.90;2.17;;;16.10;99.90;;;;;;5051897;28;20053;-75
2023/06/04 07:41:56;;;;;;;9.20;2.10;;;;;;;;;;5061117;28;20335;-75
2023/06/04 07:44:22;;;;;;;11.07;2.30;;;16.30;99.90;;;;;;5064526;28;20247;-75
2023/06/04 07:46:48;;;;;;;8.25;2.45;;;16.40;99.90;;;;;;5062738;28;20649;-75
2023/06/04 07:49:14;;;;;;;6.80;2.20;;;16.40;99.90;;;;;;5063154;28;20411;-75
2023/06/04 07:51:40;;;;;;;9.43;2.25;;;16.40;99.90;;;;;;5062875;28;20083;-75
2023/06/04 07:54:06;;;;;;;11.75;2.70;;;16.50;99.90;;;;;;5053522;28;20068;-75
2023/06/04 07:56:32;;;;;;;8.73;2.38;;;16.60;99.90;;;;;;5056375;28;20135;-75
2023/06/04 07:58:57;;;;;;;9.18;2.30;;;16.70;99.90;;;;;;5054298;28;20079;-75
2023/06/04 08:01:23;;;;;;;8.85;2.30;;;16.70;99.90;;;;;;5066358;28;20140;-75
2023/06/04 08:03:50;;;;;;;5.85;1.95;;;16.80;99.90;;;;;;5058826;28;20451;-75
2023/06/04 08:06:16;;;;;;;7.90;2.05;;;16.80;99.90;;;;;;5048551;28;20068;-75
2023/06/04 08:08:48;;;;;;;7.82;2.30;;;16.90;99.90;;;;;;5059184;28;20052;-75
2023/06/04 08:11:14;;;;;;;7.50;2.10;;;16.90;99.90;;;;;;5060098;28;20036;-75
2023/06/04 08:13:41;;;;;;;9.68;2.28;;;16.90;99.90;;;;;;5069330;28;20279;-75
2023/06/04 08:16:07;;;;;;;11.35;2.55;;;17.00;99.90;;;;;;5048459;28;20047;-75
2023/06/04 08:18:33;;;;;;;8.85;2.08;;;17.10;99.90;;;;;;5047512;28;20045;-76
2023/06/04 08:20:59;;;;;;;7.65;2.17;;;17.20;99.90;;;;;;5059116;28;20113;-75
2023/06/04 08:23:24;;;;;;;9.18;2.30;;;17.20;99.90;;;;;;5054449;28;20127;-78
2023/06/04 08:25:50;;;;;;;6.35;2.30;;;;;;;;;;5062306;28;20044;-80
2023/06/04 08:28:18;;;;;;;9.52;2.40;;;17.20;99.90;;;;;;5064378;28;20091;-78
2023/06/04 08:30:45;;;;;;;9.98;2.45;;;17.20;99.90;;;;;;5060520;28;20517;-78
2023/06/04 08:33:11;;;;;;;7.13;1.92;;;17.30;99.90;;;;;;5042011;28;20053;-78
2023/06/04 08:35:37;;;;;;;8.18;2.05;;;16.50;99.90;;;;;;5062613;28;20029;-79
2023/06/04 08:38:03;;;;;;;7.45;2.00;;;17.40;99.90;;;;;;5044553;28;20429;-80
2023/06/04 08:40:29;;;;;;;6.35;2.00;;;17.40;99.90;;;;;;5057262;28;20039;-79
2023/06/04 08:42:59;;;;;;;9.65;2.20;;;17.40;99.90;;;;;;5031912;28;20044;-79
2023/06/04 08:45:25;;;;;;;8.90;2.20;;;17.40;99.90;;;;;;5061594;28;20048;-80
2023/06/04 08:47:51;;;;;;;7.75;2.15;;;17.40;99.90;;;;;;5064265;28;20107;-83
2023/06/04 08:50:19;;;;;;;7.50;2.40;;;17.60;99.90;;;;;;5043834;28;20347;-81
2023/06/04 08:52:46;;;;;;;6.28;1.95;;;17.50;99.90;;;;;;5057195;28;20045;-82
2023/06/04 08:55:13;;;;;;;7.88;2.05;;;17.60;99.90;;;;;;5056527;28;20045;-82
2023/06/04 08:57:40;;;;;;;7.30;1.90;;;17.70;99.90;;;;;;5057098;28;20048;-82
2023/06/04 09:00:08;;;;;;;5.80;2.00;;;17.70;99.90;;;;;;5061148;28;20074;-82
2023/06/04 09:02:37;;;;;;;6.45;1.88;;;17.80;99.90;;;;;;5054448;28;20577;-82
2023/06/04 09:05:04;;;;;;;5.35;1.80;;;17.70;99.90;;;;;;5047755;28;20044;-80
2023/06/04 09:07:31;;;;;;;10.20;2.65;;;17.80;99.90;;;;;;5054748;28;20124;-82
2023/06/04 09:09:58;;;;;;;7.50;2.00;;;18.00;99.90;;;;;;5051015;28;20037;-82
2023/06/04 09:12:27;;;;;;;6.93;2.03;;;18.10;99.90;;;;;;5066686;28;20083;-82
2023/06/04 09:14:53;;;;;;;7.63;2.10;;;18.10;99.90;;;;;;5034651;28;20037;-83
2023/06/04 09:17:23;;;;;;;7.35;2.13;;;18.20;99.90;;;;;;5031549;28;20452;-82
2023/06/04 09:19:50;;;;;;;7.97;2.10;;;18.10;99.90;;;;;;5039607;28;20041;-77
2023/06/04 09:22:15;;;;;;;9.73;2.40;;;18.10;99.90;;;;;;5062016;28;20045;-78
2023/06/04 09:24:46;;;;;;;6.93;2.05;;;18.10;99.90;;;;;;5041226;28;20051;-78
2023/06/04 09:27:15;;;;;;;9.65;2.30;;;18.00;99.90;;;;;;5059843;28;20045;-78
2023/06/04 09:29:51;;;;;;;8.25;2.20;;;18.00;99.90;;;;;;5055460;28;20053;-78
2023/06/04 09:32:27;;;;;;;6.18;2.00;;;18.10;99.90;;;;;;5056823;28;20049;-78
2023/06/04 09:34:54;;;;;;;8.88;2.20;;;18.20;99.90;;;;;;5052576;28;20494;-78
2023/06/04 09:37:24;;;;;;;6.00;2.10;;;;;;;;;;5069090;28;20139;-78
2023/06/04 09:39:54;;;;;;;10.05;2.50;;;18.40;99.90;;;;;;5050568;28;20103;-78
2023/06/04 09:42:21;;;;;;;6.97;2.00;;;18.30;99.90;;;;;;5055517;28;20044;-78
2023/06/04 09:44:47;;;;;;;7.13;2.22;;;18.50;99.90;;;;;;5019930;28;20036;-78
2023/06/04 09:47:13;;;;;;;7.28;2.10;;;18.40;99.90;;;;;;5034150;28;20037;-78
2023/06/04 09:49:47;;;;;;;11.18;2.35;;;18.40;99.90;;;;;;5038803;28;20068;-78
2023/06/04 09:52:13;;;;;;;8.20;2.00;;;18.50;99.90;;;;;;5038132;28;20040;-78
2023/06/04 09:54:41;;;;;;;8.70;2.20;;;18.40;99.90;;;;;;5039548;28;20048;-79
2023/06/04 09:57:19;;;;;;;7.32;2.05;;;18.50;99.90;;;;;;5040290;28;20059;-79
2023/06/04 09:59:49;;;;;;;7.00;2.20;;;18.70;99.90;;;;;;5011058;28;20049;-79
2023/06/04 10:02:20;;;;;;;7.97;2.17;;;18.50;99.90;;;;;;5039369;28;20074;-78
2023/06/04 10:04:57;;;;;;;6.50;1.80;;;18.50;99.90;;;;;;5045276;28;20052;-79
2023/06/04 10:07:24;;;;;;;6.82;2.00;;;18.50;99.90;;;;;;5041123;28;20126;-78
2023/06/04 10:09:52;;;;;;;7.45;2.20;;;18.60;99.90;;;;;;5027727;28;20079;-78
2023/06/04 10:12:27;;;;;;;7.55;2.10;;;18.60;99.90;;;;;;5040877;28;20175;-78
2023/06/04 10:15:01;;;;;;;6.85;2.15;;;18.70;99.90;;;;;;5040302;28;20043;-78
2023/06/04 10:17:28;;;;;;;7.25;2.10;;;18.80;99.90;;;;;;5045555;28;20600;-79
2023/06/04 10:19:56;;;;;;;6.50;2.05;;;18.90;99.90;;;;;;5041148;28;20041;-78
2023/06/04 10:22:22;;;;;;;7.97;2.10;;;18.90;99.90;;;;;;5044333;28;20032;-78
2023/06/04 10:24:49;;;;;;;7.82;2.33;;;19.00;99.90;;;;;;5040794;28;20747;-79
2023/06/04 10:27:17;;;;;;;7.75;2.00;;;19.00;99.90;;;;;;5042928;28;20051;-78
2023/06/04 10:29:44;;;;;;;6.50;2.20;;;19.20;99.90;;;;;;5043961;28;20038;-78
2023/06/04 10:32:10;;;;;;;8.07;2.15;;;19.20;99.90;;;;;;5039959;28;20040;-79
2023/06/04 10:34:36;;;;;;;5.07;1.92;;;19.20;99.90;;;;;;5056677;28;20507;-78
2023/06/04 10:37:02;;;;;;;8.35;2.20;;;19.10;99.90;;;;;;5038105;28;20883;-79
2023/06/04 10:39:29;;;;;;;7.30;2.10;;;19.10;99.90;;;;;;5036600;28;21090;-78
2023/06/04 10:42:05;;;;;;;9.80;2.30;;;19.10;99.90;;;;;;5038528;28;20059;-78
2023/06/04 10:44:43;;;;;;;7.68;2.03;;;19.20;99.90;;;;;;5040842;28;20110;-78
2023/06/04 10:47:30;;;;;;;6.70;2.05;;;19.20;99.90;;;;;;5040341;28;20349;-79
2023/06/04 10:50:08;;;;;;;6.90;2.20;;;19.20;99.90;;;;;;5037424;28;20049;-79
2023/06/04 10:52:34;;;;;;;7.60;2.20;;;19.20;99.90;;;;;;5052625;28;20032;-79
2023/06/04 10:55:04;;;;;;;6.72;1.90;;;19.20;99.90;;;;;;5044621;28;20486;-82
2023/06/04 10:57:31;;;;;;;8.07;2.20;;;19.00;99.90;;;;;;5046001;28;20469;-82
2023/06/04 10:59:58;;;;;;;8.05;2.53;;;19.30;99.90;;;;;;5063881;28;20567;-78
2023/06/04 11:02:25;;;;;;;7.78;2.10;;;19.30;99.90;;;;;;5060252;28;20047;-79
2023/06/04 11:05:08;;;;;;;6.70;2.08;;;19.20;99.90;;;;;;5056297;28;20052;-78
2023/06/04 11:07:44;;;;;;;7.68;2.28;;;19.40;99.90;;;;;;5035426;28;20040;-79
2023/06/04 11:10:15;;;;;;;6.28;2.00;;;19.40;99.90;;;;;;5045156;28;20474;-78
2023/06/04 11:13:00;;;;;;;;;;;;;;;;;;;;;
2023/06/04 11:15:26;;;;;;;8.00;2.30;;;19.40;99.90;;;;;;5034467;28;20048;-79
2023/06/04 11:17:54;;;;;;;8.85;2.20;;;19.40;99.90;;;;;;5068779;28;20040;-79
2023/06/04 11:20:21;;;;;;;8.25;2.13;;;19.50;99.90;;;;;;5059082;28;20048;-80
2023/06/04 11:23:05;;;;;;;7.22;2.00;;;19.50;99.90;;;;;;5063391;28;20490;-79
2023/06/04 11:25:32;;;;;;;5.75;1.80;;;19.50;99.90;;;;;;5066315;28;20067;-78
2023/06/04 11:27:59;;;;;;;8.15;2.42;;;19.50;99.90;;;;;;5060708;28;20076;-78
2023/06/04 11:30:25;;;;;;;10.73;2.40;;;19.50;99.90;;;;;;5065277;28;20037;-78
2023/06/04 11:33:03;;;;;;;8.60;2.10;;;19.50;99.90;;;;;;5063896;28;20057;-78
2023/06/04 11:35:29;;;;;;;8.10;2.30;;;19.60;99.90;;;;;;5049522;28;20044;-79
2023/06/04 11:37:56;;;;;;;9.07;2.20;;;19.70;99.90;;;;;;5067050;28;20133;-79
2023/06/04 11:40:23;;;;;;;8.30;2.20;;;19.70;99.90;;;;;;5065526;28;20047;-78
2023/06/04 11:42:49;;;;;;;9.95;2.67;;;19.70;99.90;;;;;;5047025;28;20051;-79
2023/06/04 11:45:20;;;;;;;5.85;2.00;;;19.60;99.90;;;;;;5057929;28;20040;-79
2023/06/04 11:47:55;;;;;;;7.20;2.13;;;19.70;99.90;;;;;;5048512;28;20071;-80
2023/06/04 11:50:22;;;;;;;8.48;2.25;;;19.70;99.90;;;;;;5056718;28;20154;-79
2023/06/04 11:52:49;;;;;;;7.75;2.30;;;19.70;99.90;;;;;;5059016;28;20051;-79
2023/06/04 11:55:17;;;;;;;8.05;2.70;;;19.70;99.90;;;;;;5063766;28;20037;-80
2023/06/04 11:57:43;;;;;;;6.78;2.30;;;19.50;99.90;;;;;;5067095;28;20498;-80
2023/06/04 12:00:10;;;;;;;8.60;2.30;;;19.50;99.90;;;;;;5067064;28;20152;-80
2023/06/04 12:02:37;;;;;;;7.70;2.25;;;19.70;99.90;;;;;;5056563;28;20064;-79
2023/06/04 12:05:18;;;;;;;8.00;2.28;;;19.70;99.90;;;;;;5064879;28;20067;-78
2023/06/04 12:07:44;;;;;;;7.07;2.13;;;19.80;99.90;;;;;;5060361;28;20374;-78
2023/06/04 12:10:13;;;;;;;7.38;2.20;;;20.00;99.90;;;;;;5058490;28;20040;-77
2023/06/04 12:12:40;;;;;;;7.57;2.20;;;20.00;99.90;;;;;;5063541;28;20040;-78
2023/06/04 12:15:09;;;;;;;9.48;2.30;;;20.10;99.90;;;;;;5039463;28;20117;-80
2023/06/04 12:17:35;;;;;;;8.32;2.42;;;20.10;99.90;;;;;;5039702;28;20064;-79
2023/06/04 12:20:01;;;;;;;7.75;2.20;;;20.10;99.90;;;;;;5061752;28;20071;-79
2023/06/04 12:22:27;;;;;;;6.85;2.20;;;20.10;99.90;;;;;;5061022;28;20051;-79
2023/06/04 12:24:55;;;;;;;10.23;2.30;;;20.20;99.90;;;;;;5058634;28;20029;-78
2023/06/04 12:27:23;;;;;;;7.65;2.10;;;20.30;99.90;;;;;;5055205;28;20099;-79
2023/06/04 12:30:05;;;;;;;9.50;2.13;;;20.20;99.90;;;;;;5057171;28;20045;-78
2023/06/04 12:32:35;;;;;;;7.57;2.05;;;20.30;99.90;;;;;;5061144;28;20137;-77
2023/06/04 12:35:01;;;;;;;7.65;2.58;;;20.30;99.90;;;;;;5057436;28;20131;-78
2023/06/04 12:37:28;;;;;;;7.32;2.10;;;20.30;99.90;;;;;;5040923;28;20037;-80
2023/06/04 12:39:55;;;;;;;7.30;2.10;;;20.30;99.90;;;;;;5057552;28;20048;-83
2023/06/04 12:42:21;;;;;;;7.45;2.15;;;20.20;99.90;;;;;;5056443;28;20082;-83
2023/06/04 12:44:46;;;;;;;9.93;2.28;;;20.30;99.90;;;;;;4361250;28;10000512;-80